Terminal Aerodrome Forecast
Issued by NWS

Home | Current Version | Previous Version | Text Only | Print | Product List | Glossary Off
Versions: 1 2 3 4 5 6 7 8 9 10 11 12 13 14

000
FTUS43 KBIS 201738
TAFDIK
TAF
KDIK 201738Z 2018/2118 13015G23KT P6SM FEW250
     FM210100 16013KT P6SM SCT140
     FM210700 18009KT P6SM SCT200
     FM211600 18017G26KT P6SM FEW060 SCT150=

USA.gov is the U.S. government's official web portal to all federal, state and local government web resources and services.